Time;durP1;ratioP1;P1;durP2;ratioP2;P2;SDS_P1;SDS_P2;PMS_P1;PMS_P2;Temp;Humidity;BMP_temperature;BMP_pressure;BME280_temperature;BME280_humidity;BME280_pressure;Samples;Min_cycle;Max_cycle;Signal;HPM_P1;HPM_P2
2023/04/20 00:00:45;;;;;;;3.80;2.22;;;;;;;10.57;32.95;100360.06;4993461;28;20058;-79
2023/04/20 00:03:11;;;;;;;6.53;2.35;;;;;;;10.57;33.14;100373.22;4993435;28;20146;-79
2023/04/20 00:05:38;;;;;;;3.40;1.85;;;;;;;10.55;33.37;100352.25;4992884;28;20072;-79
2023/04/20 00:08:05;;;;;;;5.18;2.20;;;;;;;10.57;33.39;100351.34;4992784;28;20054;-79
2023/04/20 00:10:31;;;;;;;7.70;2.35;;;;;;;10.58;33.66;100358.31;4993226;28;20117;-79
2023/04/20 00:12:58;;;;;;;5.50;2.30;;;;;;;10.58;33.67;100345.97;4993339;28;20082;-79
2023/04/20 00:15:24;;;;;;;5.63;2.08;;;;;;;10.58;33.64;100340.72;4992701;28;20463;-79
2023/04/20 00:17:52;;;;;;;2.78;2.00;;;;;;;10.60;33.90;100344.13;4992828;28;20054;-79
2023/04/20 00:20:19;;;;;;;7.45;2.63;;;;;;;10.59;33.86;100336.31;4993085;28;20055;-79
2023/04/20 00:22:45;;;;;;;4.45;2.30;;;;;;;10.58;34.08;100338.06;4992908;28;20058;-79
2023/04/20 00:25:12;;;;;;;5.20;2.13;;;;;;;10.58;34.17;100326.72;4992651;28;20466;-78
2023/04/20 00:27:38;;;;;;;4.63;2.20;;;;;;;10.58;34.37;100326.72;4992644;28;20410;-80
2023/04/20 00:30:06;;;;;;;5.82;2.08;;;;;;;10.59;34.33;100328.41;4992801;28;20100;-79
2023/04/20 00:32:32;;;;;;;4.95;2.58;;;;;;;10.60;34.48;100314.31;4975425;28;20065;-79
2023/04/20 00:34:59;;;;;;;4.55;2.40;;;;;;;10.61;34.73;100308.97;4992305;28;20050;-79
2023/04/20 00:37:26;;;;;;;3.78;2.30;;;;;;;10.65;34.65;100301.81;4992302;28;20150;-79
2023/04/20 00:39:52;;;;;;;3.83;2.22;;;;;;;10.68;34.72;100294.59;4992772;28;20089;-79
2023/04/20 00:42:19;;;;;;;4.03;2.20;;;;;;;10.71;34.59;100287.47;4992666;28;20056;-79
2023/04/20 00:44:45;;;;;;;3.03;2.22;;;;;;;10.72;34.93;100281.28;4975095;28;20065;-79
2023/04/20 00:47:12;;;;;;;3.40;2.22;;;;;;;10.73;34.75;100283.81;4991698;28;20057;-79
2023/04/20 00:49:39;;;;;;;4.30;1.92;;;;;;;10.74;34.84;100279.41;4992116;28;20076;-79
2023/04/20 00:52:05;;;;;;;3.20;2.10;;;;;;;10.74;34.94;100275.03;4992128;28;20507;-79
2023/04/20 00:54:33;;;;;;;5.82;2.35;;;;;;;10.76;35.03;100281.03;4992575;28;20096;-79
2023/04/20 00:57:00;;;;;;;4.25;2.30;;;;;;;10.77;35.09;100274.00;4991581;28;20054;-79
2023/04/20 00:59:27;;;;;;;3.55;2.05;;;;;;;10.78;34.86;100273.94;4992266;28;20101;-79
2023/04/20 01:01:53;;;;;;;2.60;1.98;;;;;;;10.80;35.01;100263.31;4992179;28;20085;-79
2023/04/20 01:04:20;;;;;;;2.95;2.25;;;;;;;10.81;35.11;100270.31;4992126;28;20073;-79
2023/04/20 01:06:47;;;;;;;4.10;2.35;;;;;;;10.80;35.10;100274.69;4991433;28;20419;-79
2023/04/20 01:09:14;;;;;;;5.90;2.17;;;;;;;10.78;35.03;100276.56;4992208;28;20054;-79
2023/04/20 01:11:41;;;;;;;2.67;2.00;;;;;;;10.75;35.06;100260.91;4992036;28;20054;-79
2023/04/20 01:14:07;;;;;;;10.45;2.15;;;;;;;10.73;35.23;100270.66;4992081;28;20054;-79
2023/04/20 01:16:35;;;;;;;4.47;2.55;;;;;;;10.71;35.50;100256.72;4973985;28;20062;-79
2023/04/20 01:19:02;;;;;;;5.75;2.20;;;;;;;10.68;35.51;100259.50;4974798;28;20545;-79
2023/04/20 01:21:29;;;;;;;8.82;2.42;;;;;;;10.66;35.72;100261.38;4992001;28;20070;-79
2023/04/20 01:23:56;;;;;;;5.70;2.60;;;;;;;10.66;35.66;100258.75;4992032;28;20442;-79
2023/04/20 01:26:24;;;;;;;4.70;2.08;;;;;;;10.66;35.84;100261.38;4990914;28;20332;-79
2023/04/20 01:28:50;;;;;;;6.55;2.33;;;;;;;10.67;36.01;100249.91;4991464;28;20062;-79
2023/04/20 01:31:18;;;;;;;4.63;2.40;;;;;;;10.68;36.09;100254.25;4991450;28;20050;-79
2023/04/20 01:33:45;;;;;;;3.58;2.20;;;;;;;10.67;36.22;100242.88;4974253;28;20062;-79
2023/04/20 01:36:12;;;;;;;5.32;2.28;;;;;;;10.67;36.45;100247.28;4991360;28;20433;-79
2023/04/20 01:38:38;;;;;;;4.75;2.30;;;;;;;10.66;36.45;100240.31;4989877;28;20081;-79
2023/04/20 01:41:07;;;;;;;4.05;2.55;;;;;;;10.64;36.94;100248.28;4991619;28;20058;-79
2023/04/20 01:43:35;;;;;;;7.22;2.30;;;;;;;10.61;37.05;100237.91;4991583;28;20050;-79
2023/04/20 01:46:02;;;;;;;4.25;2.20;;;;;;;10.59;36.78;100234.50;4990940;28;20061;-79
2023/04/20 01:48:28;;;;;;;5.15;2.83;;;;;;;10.55;37.07;100236.41;4973927;28;20410;-79
2023/04/20 01:50:55;;;;;;;2.97;2.22;;;;;;;10.53;37.30;100230.38;4991419;28;20093;-79
2023/04/20 01:53:22;;;;;;;6.45;2.30;;;;;;;10.50;37.47;100227.91;4991282;28;20141;-79
2023/04/20 01:55:48;;;;;;;5.68;2.33;;;;;;;10.49;37.41;100222.72;4991061;28;20061;-79
2023/04/20 01:58:15;;;;;;;6.10;2.42;;;;;;;10.48;37.65;100226.28;4990953;28;20145;-79
2023/04/20 02:00:42;;;;;;;5.40;2.45;;;;;;;10.43;37.42;100214.16;4991197;28;20061;-80
2023/04/20 02:03:08;;;;;;;6.18;2.38;;;;;;;10.42;37.93;100216.84;4991390;28;20133;-79
2023/04/20 02:05:35;;;;;;;5.70;2.40;;;;;;;10.41;38.23;100209.91;4990972;28;20050;-79
2023/04/20 02:08:02;;;;;;;4.15;2.28;;;;;;;10.41;38.36;100217.78;4990822;28;20142;-79
2023/04/20 02:10:28;;;;;;;5.63;2.45;;;;;;;10.39;38.29;100211.78;4991226;28;20506;-79
2023/04/20 02:12:55;;;;;;;2.70;2.17;;;;;;;10.38;38.35;100216.16;4991122;28;20149;-79
2023/04/20 02:15:22;;;;;;;4.53;2.47;;;;;;;10.38;38.52;100217.94;4990728;28;20137;-79
2023/04/20 02:17:50;;;;;;;6.68;2.55;;;;;;;10.34;38.62;100213.75;4990872;28;20145;-79
2023/04/20 02:20:18;;;;;;;4.32;2.55;;;;;;;10.33;38.98;100222.56;4991201;28;20060;-79
2023/04/20 02:22:45;;;;;;;5.50;2.40;;;;;;;10.32;38.75;100228.78;4990929;28;20085;-79
2023/04/20 02:25:13;;;;;;;5.05;2.67;;;;;;;10.31;39.12;100214.75;4990618;28;20419;-79
2023/04/20 02:27:40;;;;;;;6.97;2.45;;;;;;;10.30;39.13;100202.53;4957340;28;20101;-78
2023/04/20 02:30:07;;;;;;;4.57;2.38;;;;;;;10.28;39.44;100207.88;4989979;28;20064;-79
2023/04/20 02:32:33;;;;;;;7.15;2.50;;;;;;;10.25;39.46;100202.75;4991114;28;20392;-79
2023/04/20 02:35:01;;;;;;;3.78;2.47;;;;;;;10.22;39.44;100207.31;4990722;28;20562;-79
2023/04/20 02:37:28;;;;;;;6.18;2.25;;;;;;;10.19;39.65;100200.41;4990576;28;20521;-79
2023/04/20 02:39:54;;;;;;;3.25;2.03;;;;;;;10.16;40.01;100195.28;4994964;28;20088;-79
2023/04/20 02:42:21;;;;;;;4.20;2.47;;;;;;;10.14;39.65;100203.25;4994817;28;20057;-79
2023/04/20 02:44:47;;;;;;;3.58;2.42;;;;;;;10.13;40.04;100191.03;4994697;28;20058;-79
2023/04/20 02:47:14;;;;;;;4.30;2.38;;;;;;;10.11;40.01;100200.81;4994465;28;20054;-78
2023/04/20 02:49:40;;;;;;;3.70;2.40;;;;;;;10.11;40.23;100205.19;4994934;28;20062;-79
2023/04/20 02:52:07;;;;;;;4.20;2.55;;;;;;;10.10;40.37;100200.88;4994536;28;20161;-79
2023/04/20 02:54:34;;;;;;;5.32;2.70;;;;;;;10.10;40.53;100182.47;4994752;28;20141;-79
2023/04/20 02:57:02;;;;;;;5.80;2.78;;;;;;;10.08;40.68;100193.03;4994032;28;20724;-79
2023/04/20 02:59:28;;;;;;;3.35;2.35;;;;;;;10.07;40.62;100188.72;4977310;28;20109;-79
2023/04/20 03:01:55;;;;;;;6.85;2.58;;;;;;;10.06;40.71;100178.25;4994745;28;20404;-79
2023/04/20 03:04:22;;;;;;;3.38;2.30;;;;;;;10.04;40.59;100180.97;4994553;28;20128;-79
2023/04/20 03:06:49;;;;;;;6.70;2.88;;;;;;;10.02;40.88;100178.41;4993327;28;20062;-78
2023/04/20 03:09:17;;;;;;;4.80;2.60;;;;;;;10.02;40.92;100175.78;4994248;28;20058;-79
2023/04/20 03:11:44;;;;;;;6.07;2.33;;;;;;;9.99;41.01;100181.16;5247774;23;20437;-79
2023/04/20 03:14:10;;;;;;;5.03;2.40;;;;;;;9.97;41.15;100177.78;4993188;28;20065;-80
2023/04/20 03:16:37;;;;;;;6.80;2.42;;;;;;;9.97;41.04;100179.53;4992360;28;20513;-79
2023/04/20 03:19:04;;;;;;;4.05;2.47;;;;;;;9.96;41.22;100183.09;4991847;28;20089;-80
2023/04/20 03:21:30;;;;;;;3.60;2.30;;;;;;;9.95;41.24;100177.00;4992970;28;20054;-80
2023/04/20 03:23:56;;;;;;;6.80;2.50;;;;;;;9.96;41.21;100172.59;4992927;28;20081;-80
2023/04/20 03:26:23;;;;;;;4.97;2.20;;;;;;;9.94;41.49;100159.50;4992504;28;20058;-80
2023/04/20 03:28:50;;;;;;;3.50;2.20;;;;;;;9.95;41.58;100155.13;4992286;28;20058;-80
2023/04/20 03:31:17;;;;;;;4.80;2.30;;;;;;;9.94;41.64;100156.03;4992520;28;20473;-80
2023/04/20 03:33:43;;;;;;;3.22;2.47;;;;;;;9.93;41.67;100154.31;4992813;28;20058;-80
2023/04/20 03:36:12;;;;;;;4.70;2.28;;;;;;;9.92;41.83;100153.47;4975140;28;20112;-80
2023/04/20 03:38:39;;;;;;;4.93;2.22;;;;;;;9.92;41.95;100161.38;4992132;28;20058;-80
2023/04/20 03:41:07;;;;;;;5.10;2.50;;;;;;;9.89;41.92;100146.59;4992567;28;20058;-80
2023/04/20 03:43:33;;;;;;;6.40;2.50;;;;;;;9.88;42.05;100154.56;4992930;28;20078;-80
2023/04/20 03:46:00;;;;;;;6.07;2.45;;;;;;;9.85;42.23;100145.03;4974910;28;20191;-80
2023/04/20 03:48:26;;;;;;;4.00;2.60;;;;;;;9.83;42.20;100148.66;4974309;28;20055;-80
2023/04/20 03:50:53;;;;;;;4.40;2.50;;;;;;;9.80;42.37;100146.19;4974870;28;20449;-80
2023/04/20 03:53:19;;;;;;;4.38;2.50;;;;;;;9.78;42.27;100143.63;4991303;28;20062;-80
2023/04/20 03:55:46;;;;;;;5.20;2.63;;;;;;;9.78;42.66;100146.25;4992124;28;20062;-80
2023/04/20 03:58:12;;;;;;;4.90;2.47;;;;;;;9.75;42.69;100144.63;4974892;28;20054;-80
2023/04/20 04:00:38;;;;;;;3.00;2.35;;;;;;;9.75;42.57;100152.50;4992261;28;20084;-80
2023/04/20 04:03:05;;;;;;;3.17;2.10;;;;;;;9.75;42.57;100155.13;4992435;28;20058;-80
2023/04/20 04:05:32;;;;;;;6.00;2.47;;;;;;;9.73;42.84;100149.09;4991693;28;20058;-80
2023/04/20 04:07:58;;;;;;;9.30;2.47;;;;;;;9.71;42.64;100156.19;4991843;28;20054;-80
2023/04/20 04:10:25;;;;;;;5.05;2.65;;;;;;;9.71;43.07;100152.72;4992091;28;20066;-80
2023/04/20 04:12:52;;;;;;;6.78;2.72;;;;;;;9.68;42.90;100145.81;4992154;28;20058;-80
2023/04/20 04:15:18;;;;;;;7.95;2.67;;;;;;;9.67;43.15;100151.16;4991705;28;20061;-80
2023/04/20 04:17:45;;;;;;;6.28;2.53;;;;;;;9.66;43.32;100150.31;4992078;28;20446;-80
2023/04/20 04:20:12;;;;;;;9.05;2.70;;;;;;;9.66;43.18;100147.69;4991936;28;20054;-80
2023/04/20 04:22:39;;;;;;;4.50;2.72;;;;;;;9.65;43.20;100148.63;4991866;28;20058;-80
2023/04/20 04:25:06;;;;;;;7.78;2.72;;;;;;;9.64;43.44;100154.78;4991484;28;20509;-80
2023/04/20 04:27:36;;;;;;;3.83;2.20;;;;;;;9.63;43.80;100160.97;4991531;28;20115;-80
2023/04/20 04:30:03;;;;;;;6.00;2.22;;;;;;;9.62;43.48;100156.63;4974556;28;20058;-80
2023/04/20 04:32:30;;;;;;;4.97;2.25;;;;;;;9.61;43.90;100149.69;4974271;28;20054;-80
2023/04/20 04:34:57;;;;;;;5.95;3.15;;;;;;;9.61;43.85;100158.41;4991254;28;20513;-80
2023/04/20 04:37:23;;;;;;;5.05;2.92;;;;;;;9.61;43.88;100166.28;4991202;28;20066;-80
2023/04/20 04:39:50;;;;;;;5.78;2.83;;;;;;;9.61;43.99;100152.31;4991943;28;20058;-80
2023/04/20 04:42:16;;;;;;;4.45;2.70;;;;;;;9.62;43.97;100164.53;4991307;28;20050;-80
2023/04/20 04:44:43;;;;;;;8.65;2.85;;;;;;;9.61;44.26;100152.31;4991451;28;20109;-80
2023/04/20 04:47:10;;;;;;;4.78;2.80;;;;;;;9.61;44.49;100157.56;4990895;28;20054;-80
2023/04/20 04:49:39;;;;;;;4.28;2.60;;;;;;;9.60;43.86;100156.69;4990160;28;20314;-80
2023/04/20 04:52:07;;;;;;;5.72;2.67;;;;;;;9.58;44.68;100153.31;4973976;28;20163;-80
2023/04/20 04:54:34;;;;;;;6.47;2.78;;;;;;;9.58;44.65;100150.69;4974139;28;20468;-80
2023/04/20 04:57:01;;;;;;;6.05;2.60;;;;;;;9.58;44.27;100163.81;4973374;28;20054;-81
2023/04/20 04:59:27;;;;;;;7.13;2.72;;;;;;;9.56;44.64;100160.41;4988906;28;20422;-82
2023/04/20 05:01:54;;;;;;;5.60;2.28;;;;;;;9.56;44.49;100163.03;4987974;28;20056;-81
2023/04/20 05:04:21;;;;;;;5.20;2.92;;;;;;;9.56;44.79;100157.75;4985358;28;20061;-81
2023/04/20 05:06:48;;;;;;;5.45;2.45;;;;;;;9.56;44.63;100159.53;4990376;28;20536;-81
2023/04/20 05:09:15;;;;;;;7.57;2.58;;;;;;;9.54;44.66;100162.25;4991227;28;20089;-81
2023/04/20 05:11:41;;;;;;;6.55;3.33;;;;;;;9.55;44.94;100179.72;4989733;28;20429;-81
2023/04/20 05:14:08;;;;;;;5.75;3.20;;;;;;;9.54;45.06;100166.66;4991012;28;20097;-81
2023/04/20 05:16:35;;;;;;;7.88;2.80;;;;;;;9.55;45.22;100165.72;4990373;28;20050;-84
2023/04/20 05:19:04;;;;;;;8.07;2.92;;;;;;;9.53;46.08;100168.41;4987299;28;20058;-85
2023/04/20 05:21:31;;;;;;;4.95;2.80;;;;;;;9.54;45.42;100178.03;4990840;28;20057;-82
2023/04/20 05:23:58;;;;;;;4.22;2.58;;;;;;;9.52;45.28;100164.94;4990747;28;20062;-81
2023/04/20 05:26:24;;;;;;;3.72;2.80;;;;;;;9.51;45.38;100176.41;4990227;28;20054;-81
2023/04/20 05:28:51;;;;;;;4.47;2.50;;;;;;;9.49;45.34;100174.72;4989787;28;20058;-81
2023/04/20 05:31:17;;;;;;;6.03;3.20;;;;;;;9.48;45.53;100178.28;4990379;28;20047;-81
2023/04/20 05:33:44;;;;;;;5.40;2.80;;;;;;;9.47;45.68;100181.84;4990198;28;20112;-81
2023/04/20 05:36:10;;;;;;;4.55;2.53;;;;;;;9.45;46.10;100184.53;4988584;28;20081;-81
2023/04/20 05:38:37;;;;;;;4.03;2.70;;;;;;;9.44;45.90;100181.97;4989656;28;20081;-81
2023/04/20 05:41:04;;;;;;;4.78;2.85;;;;;;;9.44;45.53;100188.09;4990040;28;20050;-81
2023/04/20 05:43:30;;;;;;;7.00;3.38;;;;;;;9.44;46.18;100176.72;4989235;28;20428;-81
2023/04/20 05:45:57;;;;;;;6.47;3.15;;;;;;;9.41;46.15;100182.97;4989987;28;20061;-81
2023/04/20 05:48:26;;;;;;;4.95;3.00;;;;;;;9.40;46.27;100176.03;4989038;28;20062;-81
2023/04/20 05:50:55;;;;;;;4.38;2.97;;;;;;;9.41;46.31;100176.88;4983890;28;20096;-81
2023/04/20 05:53:22;;;;;;;4.03;2.70;;;;;;;9.39;46.05;100175.16;4987490;28;20058;-81
2023/04/20 05:55:48;;;;;;;4.68;2.88;;;;;;;9.39;46.29;100175.16;4987257;28;20061;-81
2023/04/20 05:58:15;;;;;;;5.18;3.05;;;;;;;9.38;46.40;100180.47;4987317;28;20441;-81
2023/04/20 06:00:42;;;;;;;8.45;3.10;;;;;;;9.37;46.50;100170.91;4987164;28;20116;-81
2023/04/20 06:03:08;;;;;;;6.57;3.30;;;;;;;9.34;46.62;100185.03;4988042;28;20390;-81
2023/04/20 06:05:35;;;;;;;5.85;3.08;;;;;;;9.33;46.58;100182.47;4992844;28;20520;-81
2023/04/20 06:08:01;;;;;;;5.57;3.25;;;;;;;9.30;46.88;100188.72;4989642;28;20054;-81
2023/04/20 06:10:31;;;;;;;5.00;3.20;;;;;;;9.30;46.76;100180.00;4988781;28;20054;-81
2023/04/20 06:12:57;;;;;;;8.75;3.70;;;;;;;9.27;46.99;100180.97;4987965;28;20060;-80
2023/04/20 06:15:24;;;;;;;6.53;3.50;;;;;;;9.25;47.16;100174.94;4988171;28;20061;-79
2023/04/20 06:17:50;;;;;;;5.47;3.17;;;;;;;9.23;47.06;100184.63;4988183;28;20116;-81
2023/04/20 06:20:18;;;;;;;4.60;3.17;;;;;;;9.21;47.10;100179.47;4989677;28;20734;-80
2023/04/20 06:22:45;;;;;;;6.32;3.25;;;;;;;9.20;47.38;100177.75;4989803;28;20062;-81
2023/04/20 06:25:12;;;;;;;4.75;3.15;;;;;;;9.21;47.37;100181.25;4989406;28;20061;-80
2023/04/20 06:27:39;;;;;;;4.57;3.03;;;;;;;9.20;47.60;100175.13;4989420;28;20424;-81
2023/04/20 06:30:06;;;;;;;5.78;3.25;;;;;;;9.21;47.70;100176.00;4988890;28;20058;-81
2023/04/20 06:32:32;;;;;;;6.78;3.50;;;;;;;9.21;47.84;100173.38;4989876;28;20460;-81
2023/04/20 06:34:59;;;;;;;7.45;3.22;;;;;;;9.22;48.10;100168.03;4989669;28;20058;-80
2023/04/20 06:37:26;;;;;;;6.68;3.75;;;;;;;9.25;47.97;100169.69;4996738;28;20064;-84
2023/04/20 06:39:56;;;;;;;6.25;3.33;;;;;;;9.29;48.13;100165.13;4996179;28;20464;-81
2023/04/20 06:42:23;;;;;;;5.43;3.08;;;;;;;9.30;48.07;100165.06;4992126;28;20557;-81
2023/04/20 06:44:49;;;;;;;5.50;3.20;;;;;;;9.33;48.21;100171.94;4997098;28;20069;-81
2023/04/20 06:47:16;;;;;;;7.43;3.28;;;;;;;9.36;48.27;100166.56;4989094;28;20072;-81
2023/04/20 06:49:42;;;;;;;7.28;3.70;;;;;;;9.39;48.12;100161.19;4988023;28;20406;-81
2023/04/20 06:52:09;;;;;;;4.75;3.25;;;;;;;9.42;48.27;100149.69;4986345;28;20302;-81
2023/04/20 06:54:35;;;;;;;5.25;3.30;;;;;;;9.48;48.21;100157.25;4988105;28;20062;-81
2023/04/20 06:57:02;;;;;;;4.35;2.85;;;;;;;9.50;48.25;100166.78;4986822;28;20055;-81
2023/04/20 06:59:28;;;;;;;4.38;3.08;;;;;;;9.52;48.43;100170.22;4988679;28;20061;-81
2023/04/20 07:01:54;;;;;;;5.18;3.38;;;;;;;9.57;48.26;100166.50;4988491;28;20065;-81
2023/04/20 07:04:21;;;;;;;10.02;3.42;;;;;;;9.60;48.53;100155.84;4988706;28;20503;-81
2023/04/20 07:06:48;;;;;;;3.97;2.85;;;;;;;9.62;48.41;100169.78;4989058;28;20054;-81
2023/04/20 07:09:18;;;;;;;5.63;3.60;;;;;;;9.66;48.48;100166.09;4989091;28;20105;-81
2023/04/20 07:11:45;;;;;;;4.25;3.17;;;;;;;9.68;48.54;100168.66;4988666;28;20062;-81
2023/04/20 07:14:11;;;;;;;5.45;3.53;;;;;;;9.71;48.51;100163.22;4989941;28;20054;-81
2023/04/20 07:16:37;;;;;;;7.65;3.67;;;;;;;9.74;48.54;100163.09;4987974;28;20520;-81
2023/04/20 07:19:04;;;;;;;7.47;3.78;;;;;;;9.76;48.53;100167.34;4988692;28;20104;-81
2023/04/20 07:21:31;;;;;;;6.57;3.72;;;;;;;9.80;48.26;100164.59;4988661;28;20055;-80
2023/04/20 07:23:57;;;;;;;6.03;3.60;;;;;;;9.83;48.43;100167.06;4989319;28;20468;-81
2023/04/20 07:26:24;;;;;;;6.10;3.40;;;;;;;9.83;48.62;100159.19;4993108;28;20420;-81
2023/04/20 07:28:51;;;;;;;8.60;3.58;;;;;;;9.88;49.00;100163.28;4991645;28;20431;-80
2023/04/20 07:31:17;;;;;;;6.38;3.63;;;;;;;9.94;48.76;100158.69;4993280;28;20061;-81
2023/04/20 07:33:44;;;;;;;5.93;3.38;;;;;;;9.99;48.79;100160.13;4992052;28;20058;-81
2023/04/20 07:36:10;;;;;;;6.07;3.70;;;;;;;10.07;48.49;100164.19;4992956;28;20062;-81
2023/04/20 07:38:37;;;;;;;5.30;3.38;;;;;;;10.11;48.52;100166.59;4993001;28;20058;-81
2023/04/20 07:41:08;;;;;;;5.65;3.47;;;;;;;10.15;49.09;100162.03;4993211;28;20072;-81
2023/04/20 07:43:35;;;;;;;5.40;3.65;;;;;;;10.21;48.33;100166.16;4992986;28;20061;-81
2023/04/20 07:46:01;;;;;;;6.40;4.13;;;;;;;10.26;48.51;100172.03;4992936;28;20062;-81
2023/04/20 07:48:28;;;;;;;6.18;3.20;;;;;;;10.32;48.32;100163.00;4992617;28;20160;-81
2023/04/20 07:50:54;;;;;;;6.63;3.75;;;;;;;10.36;48.60;100169.81;4991381;28;20653;-81
2023/04/20 07:53:21;;;;;;;6.80;3.58;;;;;;;10.39;48.27;100169.66;4991762;28;20050;-81
2023/04/20 07:55:47;;;;;;;5.03;3.42;;;;;;;10.42;48.31;100170.34;4992602;28;20061;-81
2023/04/20 07:58:16;;;;;;;7.53;4.10;;;;;;;10.45;48.04;100160.63;4991697;28;20090;-81
2023/04/20 08:00:45;;;;;;;5.82;3.42;;;;;;;10.43;48.31;100168.56;4990654;28;20532;-81
2023/04/20 08:03:11;;;;;;;4.15;3.33;;;;;;;10.43;48.15;100166.78;4991584;28;20057;-81
2023/04/20 08:05:39;;;;;;;4.10;3.13;;;;;;;10.45;47.85;100165.88;4991100;28;20058;-81
2023/04/20 08:08:06;;;;;;;5.40;3.63;;;;;;;10.45;47.82;100174.63;4992105;28;20089;-81
2023/04/20 08:10:32;;;;;;;5.40;3.75;;;;;;;10.43;47.80;100176.44;4992253;28;20472;-81
2023/04/20 08:12:59;;;;;;;5.07;3.90;;;;;;;10.42;47.87;100169.50;4992164;28;20509;-81
2023/04/20 08:15:25;;;;;;;5.13;3.72;;;;;;;10.42;47.98;100172.13;4990914;28;20062;-82
2023/04/20 08:17:52;;;;;;;5.22;3.78;;;;;;;10.39;47.87;100167.03;4990980;28;20062;-81
2023/04/20 08:20:18;;;;;;;6.00;3.65;;;;;;;10.37;47.86;100169.72;4992316;28;20058;-81
2023/04/20 08:22:45;;;;;;;5.95;3.92;;;;;;;10.35;48.02;100168.09;4992328;28;20082;-81
2023/04/20 08:25:11;;;;;;;7.45;3.60;;;;;;;10.32;48.13;100176.97;4990732;28;20061;-81
2023/04/20 08:27:38;;;;;;;6.95;3.78;;;;;;;10.31;48.33;100172.66;4991927;28;20462;-81
2023/04/20 08:30:05;;;;;;;6.90;3.92;;;;;;;10.30;48.57;100166.56;4992333;28;20113;-81
2023/04/20 08:32:32;;;;;;;10.32;4.35;;;;;;;10.33;48.85;100162.91;4991102;28;20058;-81
2023/04/20 08:34:58;;;;;;;5.25;3.90;;;;;;;10.38;48.89;100166.16;4990688;28;20058;-81
2023/04/20 08:37:25;;;;;;;8.00;4.50;;;;;;;10.46;48.87;100160.53;4991786;28;20066;-81
2023/04/20 08:39:52;;;;;;;7.03;4.22;;;;;;;10.53;48.81;100161.09;4992104;28;20062;-81
2023/04/20 08:42:18;;;;;;;9.48;5.07;;;;;;;10.61;49.17;100158.09;4991954;28;20050;-81
2023/04/20 08:44:45;;;;;;;6.45;4.13;;;;;;;10.74;49.41;100158.31;4992023;28;20349;-81
2023/04/20 08:47:11;;;;;;;6.60;4.13;;;;;;;10.88;49.57;100150.53;4990219;28;20085;-81
2023/04/20 08:49:38;;;;;;;6.10;4.65;;;;;;;11.05;49.46;100148.81;4991791;28;20434;-81
2023/04/20 08:52:09;;;;;;;7.25;4.13;;;;;;;11.21;48.78;100156.72;4990428;28;20058;-81
2023/04/20 08:54:37;;;;;;;5.88;4.32;;;;;;;11.34;48.90;100147.22;4991735;28;20077;-81
2023/04/20 08:57:14;;;;;;;7.35;4.28;;;;;;;11.48;48.85;100153.56;4991425;28;20069;-81
2023/04/20 08:59:41;;;;;;;7.90;4.55;;;;;;;11.59;48.78;100152.97;4990585;28;20065;-81
2023/04/20 09:02:11;;;;;;;6.63;4.32;;;;;;;11.72;48.58;100167.19;4991570;28;20141;-81
2023/04/20 09:04:39;;;;;;;7.43;4.20;;;;;;;11.81;48.29;100165.81;4991690;28;20068;-81
2023/04/20 09:07:16;;;;;;;7.32;4.40;;;;;;;11.90;48.06;100158.31;4990855;28;20067;-81
2023/04/20 09:09:56;;;;;;;6.30;3.97;;;;;;;11.96;48.14;100165.91;4991473;28;20448;-81
2023/04/20 09:12:23;;;;;;;5.90;4.03;;;;;;;12.03;47.39;100159.31;4920675;23;20085;-78
2023/04/20 09:14:51;;;;;;;6.07;4.10;;;;;;;12.07;47.18;100165.34;4975524;28;20054;-79
2023/04/20 09:17:32;;;;;;;6.65;4.63;;;;;;;12.05;47.56;100152.22;4991703;28;20491;-79
2023/04/20 09:19:59;;;;;;;8.75;4.47;;;;;;;12.12;47.20;100150.91;4992037;28;20514;-78
2023/04/20 09:22:31;;;;;;;7.93;4.22;;;;;;;12.14;47.85;100142.09;4991975;28;20105;-79
2023/04/20 09:24:58;;;;;;;8.43;4.38;;;;;;;12.20;47.30;100142.56;4991642;28;20427;-78
2023/04/20 09:27:25;;;;;;;5.15;3.72;;;;;;;12.24;47.15;100137.97;4991437;28;20116;-78
2023/04/20 09:30:03;;;;;;;6.53;4.70;;;;;;;12.27;48.26;100140.44;4991991;28;20443;-79
2023/04/20 09:32:29;;;;;;;7.32;4.32;;;;;;;12.40;47.70;100145.00;4991588;28;20533;-79
2023/04/20 09:34:56;;;;;;;6.55;4.43;;;;;;;12.52;47.58;100152.19;4991623;28;20054;-78
2023/04/20 09:37:23;;;;;;;8.00;4.40;;;;;;;12.63;47.12;100151.53;4991567;28;20177;-78
2023/04/20 09:39:49;;;;;;;4.85;4.20;;;;;;;12.70;46.88;100152.03;4991554;28;20089;-78
2023/04/20 09:42:16;;;;;;;5.93;4.28;;;;;;;12.73;46.55;100158.00;4991573;28;20165;-79
2023/04/20 09:44:43;;;;;;;5.20;4.28;;;;;;;12.75;46.26;100142.06;4991426;28;20073;-78
2023/04/20 09:47:20;;;;;;;9.70;4.35;;;;;;;12.72;46.52;100143.09;4990771;28;20141;-78
2023/04/20 09:49:47;;;;;;;8.20;4.10;;;;;;;12.74;46.12;100149.13;4991508;28;20050;-78
2023/04/20 09:52:19;;;;;;;6.93;4.90;;;;;;;12.73;46.72;100146.56;4991425;28;20062;-78
2023/04/20 09:54:46;;;;;;;5.43;3.92;;;;;;;12.78;46.44;100136.56;4991685;28;20113;-78
2023/04/20 09:57:13;;;;;;;5.53;3.72;;;;;;;12.84;46.66;100151.22;4991268;28;20064;-78
2023/04/20 09:59:45;;;;;;;5.22;3.80;;;;;;;12.89;46.13;100144.72;4991459;28;20050;-78
2023/04/20 10:02:12;;;;;;;4.55;3.47;;;;;;;12.97;45.45;100146.88;4991349;28;20149;-78
2023/04/20 10:05:00;;;;;;;4.53;3.65;;;;;;;12.95;44.67;100140.84;4991314;28;20058;-79
2023/04/20 10:07:29;;;;;;;8.13;3.88;;;;;;;12.97;44.87;100140.75;4990146;28;20306;-78
2023/04/20 10:10:11;;;;;;;5.28;3.80;;;;;;;12.94;45.09;100141.81;4991050;28;20054;-78
2023/04/20 10:12:54;;;;;;;4.65;4.15;;;;;;;12.95;45.23;100138.22;4991255;28;20050;-78
2023/04/20 10:15:21;;;;;;;6.85;3.70;;;;;;;13.04;44.96;100144.72;4990807;28;20425;-78
2023/04/20 10:17:48;;;;;;;4.43;3.70;;;;;;;13.07;44.90;100146.31;4991272;28;20054;-78
2023/04/20 10:20:25;;;;;;;4.75;3.60;;;;;;;13.05;44.55;100148.22;4991197;28;20062;-78
2023/04/20 10:22:54;;;;;;;5.28;3.70;;;;;;;13.04;44.44;100144.72;4991671;28;20081;-78
2023/04/20 10:25:25;;;;;;;7.15;3.78;;;;;;;12.96;44.76;100142.53;4990921;28;20101;-78
2023/04/20 10:27:53;;;;;;;6.63;4.32;;;;;;;12.89;44.83;100142.06;4973439;28;20065;-78
2023/04/20 10:30:20;;;;;;;6.40;4.30;;;;;;;12.86;44.97;100151.97;4991236;28;20054;-78
2023/04/20 10:32:47;;;;;;;4.35;3.42;;;;;;;12.83;45.27;100146.88;4991097;28;20141;-78
2023/04/20 10:35:15;;;;;;;5.03;4.22;;;;;;;12.83;45.31;100145.09;4990798;28;20096;-78
2023/04/20 10:37:51;;;;;;;5.00;3.80;;;;;;;12.80;45.50;100147.91;4991024;28;20054;-78
2023/04/20 10:40:27;;;;;;;6.20;4.57;;;;;;;12.83;45.43;100139.81;4990890;28;20050;-79
2023/04/20 10:42:54;;;;;;;5.50;4.18;;;;;;;12.90;45.35;100143.75;4973690;28;20103;-78
2023/04/20 10:45:20;;;;;;;5.03;4.13;;;;;;;12.96;45.39;100131.97;4990793;28;20396;-78
2023/04/20 10:47:47;;;;;;;5.07;4.05;;;;;;;13.04;45.60;100136.78;4990921;28;20120;-78
2023/04/20 10:50:15;;;;;;;7.07;4.05;;;;;;;13.14;46.01;100137.94;4990917;28;20108;-78
2023/04/20 10:52:43;;;;;;;4.35;3.92;;;;;;;13.30;46.42;100123.75;4990729;28;20145;-78
2023/04/20 10:55:24;;;;;;;5.63;4.07;;;;;;;13.54;46.02;100125.81;4990790;28;20081;-78
2023/04/20 10:57:52;;;;;;;5.57;4.03;;;;;;;13.89;46.80;100125.34;4990782;28;20054;-78
2023/04/20 11:00:24;;;;;;;5.72;4.28;;;;;;;14.26;46.62;100123.88;4993887;28;20054;-78
2023/04/20 11:02:53;;;;;;;6.03;4.10;;;;;;;14.70;47.14;100125.28;4994607;28;20050;-78
2023/04/20 11:05:22;;;;;;;5.75;4.30;;;;;;;15.19;46.44;100125.53;4976755;28;20064;-78
2023/04/20 11:07:57;;;;;;;4.63;4.18;;;;;;;15.65;45.73;100120.53;4994546;28;20058;-79
2023/04/20 11:10:37;;;;;;;6.07;3.97;;;;;;;16.03;43.98;100118.69;4994618;28;20058;-79
2023/04/20 11:13:03;;;;;;;5.55;4.25;;;;;;;16.28;42.83;100122.19;4994362;28;20073;-78
2023/04/20 11:15:31;;;;;;;8.75;4.75;;;;;;;16.35;41.90;100117.25;4994146;28;20137;-78
2023/04/20 11:18:09;;;;;;;4.43;3.75;;;;;;;16.24;41.07;100124.22;4994081;28;20046;-78
2023/04/20 11:20:36;;;;;;;5.30;4.03;;;;;;;16.23;41.83;100119.84;4994370;28;20097;-78
2023/04/20 11:23:04;;;;;;;6.72;4.15;;;;;;;16.20;41.20;100119.25;4994382;28;20081;-78
2023/04/20 11:25:31;;;;;;;5.50;4.18;;;;;;;16.11;40.83;100120.81;4993870;28;20065;-78
2023/04/20 11:28:06;;;;;;;5.05;4.25;;;;;;;15.96;40.84;100123.63;4993859;28;20058;-79
2023/04/20 11:30:40;;;;;;;5.07;4.25;;;;;;;15.84;40.15;100112.06;4994275;28;20058;-78